Terminal Aerodrome Forecast
Issued by NWS Mt. Holly, NJ

Home | Current Version | Previous Version | Text Only | Print | Product List | Glossary On
Versions: 1 2 3 4 5 6 7 8 9 10 11 12 13 14 15 16 17 18 19 20 21 22 23 24 25 26 27 28 29 30
000
FTUS41 KPHI 171125
TAFPHL
TAF
KPHL 171125Z 1712/1818 08005KT P6SM FEW070 SCT250
     FM171500 15005KT P6SM SCT070 SCT150
     FM171900 18007KT P6SM SCT060 BKN150
     FM180700 16007KT P6SM SCT020 OVC035 PROB30 1809/1815 5SM -SHRA
      OVC010
     FM181500 20007KT 6SM -SHRA OVC015 PROB30 1815/1818 3SM -TSRA
      OVC015CB=

USA.gov is the U.S. government's official web portal to all federal, state and local government web resources and services.